Time;durP1;ratioP1;P1;durP2;ratioP2;P2;SDS_P1;SDS_P2;PMS_P1;PMS_P2;Temp;Humidity;BMP_temperature;BMP_pressure;BME280_temperature;BME280_humidity;BME280_pressure;Samples;Min_cycle;Max_cycle;Signal;HPM_P1;HPM_P2
2022/09/19 00:01:38;;;;;;;4.35;2.55;;;10.70;99.90;;;;;;5089486;28;20468;-65
2022/09/19 00:04:16;;;;;;;7.35;4.00;;;10.70;99.90;;;;;;5082598;28;20123;-65
2022/09/19 00:06:44;;;;;;;8.55;5.45;;;10.60;99.90;;;;;;5087840;28;20040;-65
2022/09/19 00:09:16;;;;;;;10.32;6.20;;;10.60;99.90;;;;;;5086046;28;20090;-65
2022/09/19 00:11:44;;;;;;;8.02;4.97;;;10.50;99.90;;;;;;5088065;28;20433;-66
2022/09/19 00:14:14;;;;;;;9.07;5.55;;;10.50;99.90;;;;;;5080584;28;20044;-65
2022/09/19 00:16:44;;;;;;;8.05;5.28;;;10.50;99.90;;;;;;5085811;28;20048;-65
2022/09/19 00:19:16;;;;;;;7.88;4.90;;;10.40;99.90;;;;;;5090935;28;20131;-65
2022/09/19 00:21:44;;;;;;;7.97;4.50;;;10.40;99.90;;;;;;5076627;28;20472;-65
2022/09/19 00:26:58;;;;;;;7.53;4.05;;;10.30;99.90;;;;;;5087924;28;20036;-65
2022/09/19 00:29:25;;;;;;;8.15;4.88;;;10.30;99.90;;;;;;5092493;28;20127;-65
2022/09/19 00:31:52;;;;;;;9.30;5.20;;;10.30;99.90;;;;;;5085325;28;20036;-65
2022/09/19 00:34:19;;;;;;;6.13;4.15;;;10.30;99.90;;;;;;5096322;28;20040;-65
2022/09/19 00:36:47;;;;;;;7.05;5.03;;;10.20;99.90;;;;;;5057890;28;20043;-65
2022/09/19 00:39:15;;;;;;;8.75;5.03;;;10.20;99.90;;;;;;5082132;28;20040;-65
2022/09/19 00:41:42;;;;;;;7.72;4.97;;;10.30;99.90;;;;;;5081866;28;20070;-65
2022/09/19 00:44:21;;;;;;;10.60;4.72;;;10.30;99.90;;;;;;5085856;28;20051;-65
2022/09/19 00:46:55;;;;;;;7.80;4.28;;;10.30;99.90;;;;;;5082589;28;20118;-65
2022/09/19 00:49:22;;;;;;;7.65;4.82;;;10.30;99.90;;;;;;5100689;28;20141;-65
2022/09/19 00:51:51;;;;;;;7.68;4.65;;;10.30;99.90;;;;;;5074620;28;20381;-65
2022/09/19 00:54:20;;;;;;;6.88;4.40;;;10.40;99.90;;;;;;5082735;28;20052;-65
2022/09/19 00:56:51;;;;;;;9.40;4.38;;;10.40;99.90;;;;;;5082984;28;20526;-65
2022/09/19 00:59:19;;;;;;;8.57;4.35;;;10.40;99.90;;;;;;5081713;28;20051;-66
2022/09/19 01:01:47;;;;;;;5.93;4.07;;;10.40;99.90;;;;;;5082170;28;20048;-65
2022/09/19 01:04:16;;;;;;;10.60;4.75;;;10.40;99.90;;;;;;5097547;28;20044;-65
2022/09/19 01:07:04;;;;;;;5.95;4.03;;;10.50;99.90;;;;;;5082151;28;20109;-65
2022/09/19 01:09:40;;;;;;;10.35;4.93;;;10.50;99.90;;;;;;5083306;28;20705;-65
2022/09/19 01:12:27;;;;;;;7.13;3.97;;;10.40;99.90;;;;;;5081641;28;20140;-65
2022/09/19 01:15:09;;;;;;;6.72;3.70;;;10.50;99.90;;;;;;5090048;28;20036;-65
2022/09/19 01:17:46;;;;;;;5.03;3.40;;;10.50;99.90;;;;;;5083332;28;20044;-65
2022/09/19 01:20:15;;;;;;;5.85;3.78;;;10.50;99.90;;;;;;5084421;28;20080;-65
2022/09/19 01:23:02;;;;;;;;;;;10.50;99.90;;;;;;5079557;28;20044;-66
2022/09/19 01:25:45;;;;;;;6.68;3.20;;;10.60;99.90;;;;;;5086824;28;19916;-65
2022/09/19 01:28:14;;;;;;;11.38;4.28;;;10.60;99.90;;;;;;5081975;28;20040;-66
2022/09/19 01:30:46;;;;;;;5.75;3.55;;;10.70;99.90;;;;;;5073829;28;20101;-65
2022/09/19 01:33:20;;;;;;;6.68;4.13;;;10.70;99.90;;;;;;5081272;28;20123;-65
2022/09/19 01:35:50;;;;;;;6.35;3.90;;;10.70;99.90;;;;;;5097709;28;20033;-65
2022/09/19 01:38:25;;;;;;;9.85;4.00;;;10.80;99.90;;;;;;5096350;28;20495;-65
2022/09/19 01:40:52;;;;;;;5.32;3.42;;;10.80;99.90;;;;;;5100407;28;20056;-65
2022/09/19 01:43:20;;;;;;;6.68;3.10;;;10.80;99.90;;;;;;5074822;28;20040;-65
2022/09/19 01:45:47;;;;;;;7.63;3.90;;;10.80;99.90;;;;;;5103093;28;20044;-66
2022/09/19 01:48:22;;;;;;;5.60;3.38;;;10.70;99.90;;;;;;5084093;28;20044;-65
2022/09/19 01:50:55;;;;;;;5.65;3.80;;;10.70;99.90;;;;;;5092639;28;20067;-65
2022/09/19 01:53:54;;;;;;;5.57;3.38;;;10.70;99.90;;;;;;5081929;28;20056;-66
2022/09/19 01:56:39;;;;;;;7.43;3.78;;;10.60;99.90;;;;;;5053783;28;20135;-65
2022/09/19 01:59:10;;;;;;;5.13;3.42;;;10.60;99.90;;;;;;5078430;28;20040;-65
2022/09/19 02:01:50;;;;;;;7.00;3.13;;;10.50;99.90;;;;;;5084970;28;20472;-65
2022/09/19 02:04:23;;;;;;;6.22;3.70;;;10.50;99.90;;;;;;5082094;28;20048;-65
2022/09/19 02:07:16;;;;;;;6.85;3.30;;;10.50;99.90;;;;;;5083747;28;20093;-65
2022/09/19 02:10:05;;;;;;;6.13;3.58;;;10.50;99.90;;;;;;5072622;28;20048;-65
2022/09/19 02:12:32;;;;;;;7.35;5.13;;;10.50;99.90;;;;;;5082306;28;20102;-65
2022/09/19 02:15:00;;;;;;;4.82;3.28;;;10.50;99.90;;;;;;5082253;28;20082;-65
2022/09/19 02:17:44;;;;;;;8.85;4.15;;;10.50;99.90;;;;;;5085705;28;20036;-65
2022/09/19 02:20:14;;;;;;;9.32;3.60;;;10.50;99.90;;;;;;5063095;28;20059;-65
2022/09/19 02:22:47;;;;;;;5.15;3.95;;;10.60;99.90;;;;;;5076793;28;20097;-65
2022/09/19 02:25:17;;;;;;;6.35;3.47;;;10.60;99.90;;;;;;5087689;28;20052;-65
2022/09/19 02:27:49;;;;;;;7.60;3.95;;;10.60;99.90;;;;;;5094744;28;20045;-65
2022/09/19 02:30:19;;;;;;;5.70;3.72;;;10.60;99.90;;;;;;5071595;28;20476;-65
2022/09/19 02:32:49;;;;;;;5.80;3.35;;;10.60;99.90;;;;;;5081476;28;20048;-65
2022/09/19 02:35:34;;;;;;;7.30;3.92;;;10.60;99.90;;;;;;5078403;28;20048;-65
2022/09/19 02:38:14;;;;;;;7.45;4.22;;;10.60;99.90;;;;;;5093519;28;20041;-65
2022/09/19 02:40:53;;;;;;;6.28;3.70;;;10.70;99.90;;;;;;5068552;28;20056;-65
2022/09/19 02:43:29;;;;;;;8.38;3.70;;;10.70;99.90;;;;;;5097269;28;20036;-65
2022/09/19 02:46:01;;;;;;;7.20;3.83;;;10.70;99.90;;;;;;5082993;28;20043;-65
2022/09/19 02:48:35;;;;;;;7.60;3.67;;;10.70;99.90;;;;;;5077191;28;20049;-66
2022/09/19 02:51:14;;;;;;;5.05;3.75;;;10.70;99.90;;;;;;5082181;28;20044;-65
2022/09/19 02:53:46;;;;;;;6.25;3.20;;;10.70;99.90;;;;;;5068064;28;20086;-65
2022/09/19 02:56:14;;;;;;;5.47;3.38;;;10.70;99.90;;;;;;5073885;28;20052;-65
2022/09/19 02:58:50;;;;;;;7.20;3.63;;;10.80;99.90;;;;;;5081452;28;20048;-65
2022/09/19 03:01:24;;;;;;;6.72;3.35;;;10.80;99.90;;;;;;5077104;28;20045;-65
2022/09/19 03:04:14;;;;;;;5.30;3.30;;;10.70;99.90;;;;;;5082037;28;20445;-66
2022/09/19 03:07:06;;;;;;;5.50;2.63;;;10.80;99.90;;;;;;5070793;28;20036;-65
2022/09/19 03:09:33;;;;;;;5.28;3.20;;;10.80;99.90;;;;;;5081462;28;20081;-65
2022/09/19 03:12:09;;;;;;;4.47;2.72;;;10.80;99.90;;;;;;5080766;28;20048;-65
2022/09/19 03:14:35;;;;;;;5.97;2.95;;;10.80;99.90;;;;;;5080977;28;20120;-65
2022/09/19 03:17:02;;;;;;;4.78;2.67;;;10.80;99.90;;;;;;5084299;28;20067;-65
2022/09/19 03:19:30;;;;;;;4.93;3.05;;;10.90;99.90;;;;;;5065062;28;20040;-65
2022/09/19 03:21:58;;;;;;;5.07;3.40;;;10.90;99.90;;;;;;5061536;28;20036;-65
2022/09/19 03:24:26;;;;;;;7.80;3.47;;;10.90;99.90;;;;;;5074689;28;20037;-65
2022/09/19 03:26:53;;;;;;;4.88;3.28;;;10.90;99.90;;;;;;5070873;28;20094;-65
2022/09/19 03:29:20;;;;;;;5.60;3.25;;;10.90;99.90;;;;;;5082119;28;20043;-66
2022/09/19 03:31:50;;;;;;;6.20;3.60;;;10.90;99.90;;;;;;5069102;28;20040;-66
2022/09/19 03:34:18;;;;;;;5.82;3.30;;;10.90;99.90;;;;;;5073528;28;20038;-65
2022/09/19 03:36:45;;;;;;;6.97;4.28;;;10.90;99.90;;;;;;5096247;28;20070;-65
2022/09/19 03:39:12;;;;;;;5.72;3.58;;;10.90;99.90;;;;;;5096138;28;20403;-65
2022/09/19 03:41:38;;;;;;;8.07;3.88;;;11.00;99.90;;;;;;5071434;28;20048;-65
2022/09/19 03:44:06;;;;;;;8.40;4.18;;;11.00;99.90;;;;;;5084980;28;20044;-65
2022/09/19 03:46:34;;;;;;;7.45;4.53;;;11.00;99.90;;;;;;5083156;28;20040;-65
2022/09/19 03:49:02;;;;;;;4.82;3.28;;;11.00;99.90;;;;;;5069832;28;20472;-65
2022/09/19 03:51:30;;;;;;;8.50;3.80;;;11.00;99.90;;;;;;5098634;28;20388;-66
2022/09/19 03:53:57;;;;;;;7.05;3.20;;;11.10;99.90;;;;;;5077579;28;20189;-65
2022/09/19 03:56:24;;;;;;;8.05;4.10;;;11.10;99.90;;;;;;5100311;28;20059;-65
2022/09/19 03:58:51;;;;;;;8.60;4.22;;;11.10;99.90;;;;;;5081834;28;20075;-65
2022/09/19 04:01:17;;;;;;;7.30;3.33;;;11.10;99.90;;;;;;5086064;28;20368;-65
2022/09/19 04:03:47;;;;;;;7.68;3.20;;;11.10;99.90;;;;;;5081107;28;20119;-65
2022/09/19 04:06:14;;;;;;;7.30;3.55;;;11.10;99.90;;;;;;5087388;28;20077;-65
2022/09/19 04:08:41;;;;;;;4.97;3.33;;;11.10;99.90;;;;;;5080698;28;20468;-65
2022/09/19 04:11:09;;;;;;;8.23;3.50;;;11.10;99.90;;;;;;5076987;28;20051;-65
2022/09/19 04:13:37;;;;;;;5.38;3.03;;;11.10;99.90;;;;;;5085314;28;20040;-65
2022/09/19 04:16:06;;;;;;;6.95;3.25;;;11.20;99.90;;;;;;5073940;28;20070;-65
2022/09/19 04:18:34;;;;;;;6.88;3.40;;;11.10;99.90;;;;;;5077679;28;20053;-66
2022/09/19 04:21:01;;;;;;;7.63;3.60;;;11.20;99.90;;;;;;5086430;28;20386;-66
2022/09/19 04:23:27;;;;;;;5.97;3.35;;;11.20;99.90;;;;;;5098093;28;20495;-65
2022/09/19 04:25:55;;;;;;;9.48;4.05;;;11.20;99.90;;;;;;5083877;28;20071;-65
2022/09/19 04:28:23;;;;;;;8.43;3.60;;;11.30;99.90;;;;;;5086852;28;20039;-65
2022/09/19 04:30:50;;;;;;;5.00;2.80;;;11.20;99.90;;;;;;5075300;28;20102;-65
2022/09/19 04:33:18;;;;;;;6.53;3.40;;;11.20;99.90;;;;;;5084465;28;20032;-65
2022/09/19 04:35:45;;;;;;;8.80;3.10;;;11.30;99.90;;;;;;5108120;28;20032;-65
2022/09/19 04:38:14;;;;;;;6.07;3.45;;;11.30;99.90;;;;;;5079948;28;20049;-66
2022/09/19 04:40:42;;;;;;;7.93;3.97;;;11.40;99.90;;;;;;5081210;28;20044;-65
2022/09/19 04:43:10;;;;;;;8.23;3.97;;;11.40;99.90;;;;;;5077639;28;20040;-65
2022/09/19 04:45:37;;;;;;;6.30;3.63;;;11.40;99.90;;;;;;5085395;28;20118;-65
2022/09/19 04:48:07;;;;;;;5.35;3.15;;;11.30;99.90;;;;;;5102390;28;20475;-65
2022/09/19 04:50:34;;;;;;;6.18;3.13;;;11.30;99.90;;;;;;5087677;28;20410;-65
2022/09/19 04:53:01;;;;;;;6.82;2.92;;;11.30;99.90;;;;;;5079283;28;20545;-65
2022/09/19 04:55:27;;;;;;;8.00;3.13;;;11.30;99.90;;;;;;5065786;28;20379;-66
2022/09/19 04:57:55;;;;;;;6.82;3.60;;;11.40;99.90;;;;;;5079029;28;20439;-65
2022/09/19 05:00:38;;;;;;;7.65;3.53;;;11.40;99.90;;;;;;5084285;28;20075;-65
2022/09/19 05:03:11;;;;;;;6.80;3.78;;;11.40;99.90;;;;;;5070741;28;20851;-66
2022/09/19 05:05:50;;;;;;;6.05;3.00;;;11.40;99.90;;;;;;5100639;28;20387;-65
2022/09/19 05:08:25;;;;;;;6.60;3.10;;;11.40;99.90;;;;;;5100444;28;20040;-65
2022/09/19 05:10:54;;;;;;;6.80;2.90;;;11.40;99.90;;;;;;5084437;28;20040;-65
2022/09/19 05:13:23;;;;;;;6.63;3.70;;;11.40;99.90;;;;;;5076566;28;20145;-65
2022/09/19 05:15:51;;;;;;;6.57;3.58;;;11.40;99.90;;;;;;5064278;28;20891;-65
2022/09/19 05:18:21;;;;;;;7.57;4.07;;;11.50;99.90;;;;;;5083451;28;20040;-65
2022/09/19 05:20:54;;;;;;;6.55;3.35;;;11.50;99.90;;;;;;5098361;28;20051;-66
2022/09/19 05:23:24;;;;;;;5.20;2.58;;;11.50;99.90;;;;;;5081757;28;20044;-65
2022/09/19 05:25:53;;;;;;;7.53;3.42;;;11.50;99.90;;;;;;5063674;28;20719;-66
2022/09/19 05:28:27;;;;;;;7.97;3.65;;;11.50;99.90;;;;;;5096839;28;20446;-65
2022/09/19 05:30:54;;;;;;;8.90;3.80;;;11.50;99.90;;;;;;5080487;28;20043;-65
2022/09/19 05:33:28;;;;;;;5.63;3.30;;;11.60;99.90;;;;;;5064734;28;20499;-65
2022/09/19 05:35:56;;;;;;;6.03;3.60;;;11.60;99.90;;;;;;5055681;28;20412;-65
2022/09/19 05:38:23;;;;;;;6.25;3.08;;;11.60;99.90;;;;;;5079823;28;20496;-65
2022/09/19 05:40:52;;;;;;;10.52;3.47;;;11.60;99.90;;;;;;5091729;28;20067;-65
2022/09/19 05:43:19;;;;;;;7.43;2.80;;;11.60;99.90;;;;;;5061603;28;20048;-65
2022/09/19 05:45:46;;;;;;;4.93;3.15;;;11.60;99.90;;;;;;5098457;28;20051;-65
2022/09/19 05:48:14;;;;;;;6.88;3.38;;;11.60;99.90;;;;;;5082267;28;20106;-65
2022/09/19 05:50:43;;;;;;;6.28;3.10;;;11.60;99.90;;;;;;5062272;28;20090;-66
2022/09/19 05:55:55;;;;;;;7.53;2.97;;;11.70;99.90;;;;;;5067109;28;20288;-65
2022/09/19 05:58:23;;;;;;;5.30;2.85;;;11.60;99.90;;;;;;5084664;28;20128;-65
2022/09/19 06:00:50;;;;;;;9.05;4.18;;;11.70;99.90;;;;;;5085677;28;20044;-65
2022/09/19 06:03:20;;;;;;;9.48;3.40;;;11.70;99.90;;;;;;5076853;28;20051;-65
2022/09/19 06:05:51;;;;;;;9.07;2.70;;;11.70;99.90;;;;;;5083504;28;20051;-65
2022/09/19 06:08:19;;;;;;;6.75;3.05;;;11.70;99.90;;;;;;5090657;28;20062;-65
2022/09/19 06:10:46;;;;;;;6.38;3.30;;;11.80;99.90;;;;;;5080231;28;20122;-66
2022/09/19 06:13:20;;;;;;;7.20;2.95;;;11.80;99.90;;;;;;5080512;28;20048;-66
2022/09/19 06:15:47;;;;;;;181.20;161.15;;;11.80;99.90;;;;;;5082424;28;20051;-67
2022/09/19 06:18:14;;;;;;;70.45;59.50;;;11.80;99.90;;;;;;5083577;28;20079;-69
2022/09/19 06:20:42;;;;;;;18.27;11.30;;;11.90;99.90;;;;;;5077656;28;20468;-66
2022/09/19 06:23:09;;;;;;;7.93;5.38;;;11.90;99.90;;;;;;5077703;28;20052;-66
2022/09/19 06:25:38;;;;;;;8.63;4.80;;;11.90;99.90;;;;;;5080940;28;20080;-66
2022/09/19 06:28:07;;;;;;;4.72;3.47;;;12.00;99.90;;;;;;5081795;28;20048;-66
2022/09/19 06:30:34;;;;;;;6.55;4.18;;;12.00;99.90;;;;;;5062998;28;20557;-66
2022/09/19 06:33:01;;;;;;;7.38;3.10;;;12.00;99.90;;;;;;5075521;28;20495;-66
2022/09/19 06:35:31;;;;;;;6.47;3.47;;;12.00;99.90;;;;;;5071652;28;20040;-66
2022/09/19 06:38:00;;;;;;;6.60;3.20;;;12.10;99.90;;;;;;5081626;28;20045;-66
2022/09/19 06:40:27;;;;;;;7.43;2.90;;;12.10;99.90;;;;;;5083000;28;20364;-66
2022/09/19 06:43:01;;;;;;;5.07;3.00;;;12.10;99.90;;;;;;5095339;28;20067;-66
2022/09/19 06:45:35;;;;;;;7.50;3.33;;;12.10;99.90;;;;;;5077752;28;20035;-62
2022/09/19 06:48:02;;;;;;;58.30;41.25;;;12.20;99.90;;;;;;5079685;28;20036;-63
2022/09/19 06:50:31;;;;;;;14.40;9.55;;;12.20;99.90;;;;;;5091388;28;20116;-66
2022/09/19 06:52:58;;;;;;;8.70;4.95;;;12.30;99.90;;;;;;5078955;28;20102;-65
2022/09/19 06:55:25;;;;;;;9.40;4.35;;;12.30;99.90;;;;;;5093784;28;20040;-66
2022/09/19 06:57:59;;;;;;;5.75;4.18;;;12.30;99.90;;;;;;5072841;28;20044;-65
2022/09/19 07:00:27;;;;;;;5.95;3.35;;;12.40;99.90;;;;;;5083120;28;20048;-65
2022/09/19 07:02:59;;;;;;;9.38;4.38;;;12.40;99.90;;;;;;5080189;28;20472;-65
2022/09/19 07:05:27;;;;;;;8.55;4.20;;;12.50;99.90;;;;;;5097463;28;20505;-67
2022/09/19 07:07:54;;;;;;;6.95;3.53;;;12.50;99.90;;;;;;5088460;28;20040;-66
2022/09/19 07:10:21;;;;;;;10.90;4.10;;;12.60;99.90;;;;;;5101542;28;20055;-67
2022/09/19 07:13:01;;;;;;;5.88;3.80;;;12.60;99.90;;;;;;5079621;28;20480;-66
2022/09/19 07:15:29;;;;;;;6.90;4.38;;;12.60;99.90;;;;;;5083711;28;20223;-62
2022/09/19 07:17:56;;;;;;;8.38;3.10;;;12.70;99.90;;;;;;5062756;28;20048;-62
2022/09/19 07:20:23;;;;;;;8.23;3.10;;;12.80;99.90;;;;;;5074438;28;20048;-63
2022/09/19 07:23:11;;;;;;;10.27;4.07;;;12.90;99.90;;;;;;5080108;28;20437;-64
2022/09/19 07:25:39;;;;;;;5.32;2.85;;;13.00;99.90;;;;;;5089834;28;20124;-63
2022/09/19 07:28:08;;;;;;;36.58;23.88;;;13.00;99.90;;;;;;5079623;28;20482;-65
2022/09/19 07:30:35;;;;;;;15.35;10.60;;;13.10;99.90;;;;;;5092203;28;20044;-64
2022/09/19 07:33:04;;;;;;;9.23;4.60;;;13.20;99.90;;;;;;5074057;28;20471;-63
2022/09/19 07:35:33;;;;;;;7.50;3.78;;;13.30;99.90;;;;;;5079328;28;20036;-64
2022/09/19 07:38:02;;;;;;;5.32;3.30;;;13.30;99.90;;;;;;5093988;28;20036;-64
2022/09/19 07:40:29;;;;;;;11.80;3.78;;;13.30;99.90;;;;;;5076236;28;20049;-64
2022/09/19 07:43:01;;;;;;;7.50;3.63;;;13.40;99.90;;;;;;5080835;28;20055;-63
2022/09/19 07:45:29;;;;;;;4.30;3.22;;;13.50;99.90;;;;;;5075023;28;20040;-65
2022/09/19 07:48:01;;;;;;;6.72;3.47;;;13.50;99.90;;;;;;5065438;28;20388;-63
2022/09/19 07:50:28;;;;;;;9.68;3.33;;;13.60;99.90;;;;;;5101225;28;20480;-63
2022/09/19 07:53:19;;;;;;;8.52;3.33;;;13.70;99.90;;;;;;5101245;28;20044;-63
2022/09/19 07:55:53;;;;;;;9.40;4.22;;;13.70;99.90;;;;;;5077934;28;20036;-67
2022/09/19 07:58:21;;;;;;;7.47;4.55;;;13.80;99.90;;;;;;5096649;28;20059;-67
2022/09/19 08:00:49;;;;;;;8.13;3.53;;;13.80;99.90;;;;;;5097311;28;20118;-67
2022/09/19 08:03:17;;;;;;;5.95;3.00;;;13.80;99.90;;;;;;5075621;28;20547;-67
2022/09/19 08:05:46;;;;;;;10.30;4.35;;;13.90;99.90;;;;;;5088363;28;20044;-67
2022/09/19 08:08:14;;;;;;;6.25;2.72;;;14.00;99.90;;;;;;5089397;28;20090;-68
2022/09/19 08:10:41;;;;;;;8.88;2.65;;;14.00;99.90;;;;;;5082524;28;20060;-67
2022/09/19 08:13:14;;;;;;;11.57;3.38;;;14.00;99.90;;;;;;5077258;28;20381;-67
2022/09/19 08:15:42;;;;;;;8.15;2.88;;;14.10;99.90;;;;;;5067311;28;20437;-67
2022/09/19 08:18:14;;;;;;;6.97;2.80;;;14.20;99.90;;;;;;5077377;28;20048;-67
2022/09/19 08:20:41;;;;;;;6.95;3.20;;;14.10;99.90;;;;;;5060344;28;20037;-67
2022/09/19 08:23:13;;;;;;;10.57;3.20;;;14.20;99.90;;;;;;5064034;28;20862;-67
2022/09/19 08:25:42;;;;;;;9.90;3.10;;;14.20;99.90;;;;;;5072371;28;20049;-66
2022/09/19 08:28:10;;;;;;;10.48;2.58;;;14.30;99.90;;;;;;5080453;28;20044;-67
2022/09/19 08:30:36;;;;;;;9.82;3.10;;;14.20;99.90;;;;;;5080522;28;20037;-66
2022/09/19 08:33:06;;;;;;;4.57;2.35;;;14.30;99.90;;;;;;5086118;28;20100;-67
2022/09/19 08:35:40;;;;;;;6.80;2.45;;;14.30;99.90;;;;;;5081491;28;20071;-67
2022/09/19 08:38:08;;;;;;;;;;;14.40;99.90;;;;;;5072154;28;20067;-68
2022/09/19 08:40:43;;;;;;;12.43;7.07;;;14.40;99.90;;;;;;5077483;28;19921;-69
2022/09/19 08:43:37;;;;;;;20.20;12.00;;;14.50;99.90;;;;;;5083333;28;20098;-69
2022/09/19 08:46:10;;;;;;;18.20;12.85;;;14.60;99.90;;;;;;5065380;28;20063;-68
2022/09/19 08:48:46;;;;;;;29.70;24.88;;;14.70;99.90;;;;;;5096839;28;20036;-70
2022/09/19 08:51:28;;;;;;;11.52;3.85;;;14.80;99.90;;;;;;5082567;28;20040;-71
2022/09/19 08:54:28;;;;;;;52.17;40.80;;;14.80;99.90;;;;;;5057333;28;20066;-64
2022/09/19 08:56:55;;;;;;;;;;;14.90;99.90;;;;;;5049873;28;20091;-68
2022/09/19 08:59:23;;;;;;;8.90;5.60;;;15.00;99.90;;;;;;5078347;28;19916;-68
2022/09/19 09:01:53;;;;;;;9.53;2.93;;;15.10;99.90;;;;;;5082669;28;20052;-68
2022/09/19 09:04:40;;;;;;;12.02;2.35;;;15.10;99.90;;;;;;5071702;28;20046;-66
2022/09/19 09:07:16;;;;;;;4.18;1.92;;;15.10;99.90;;;;;;5081894;28;20059;-67
2022/09/19 09:10:07;;;;;;;4.88;1.85;;;15.20;99.90;;;;;;5081875;28;20040;-66
2022/09/19 09:12:53;;;;;;;6.68;2.05;;;15.10;99.90;;;;;;5078916;28;20105;-71
2022/09/19 09:15:24;;;;;;;2.78;1.42;;;15.10;99.90;;;;;;5082259;28;20093;-69
2022/09/19 09:18:38;;;;;;;3.45;1.80;;;15.20;99.90;;;;;;5069873;28;20044;-69
2022/09/19 09:21:28;;;;;;;4.13;1.27;;;15.10;99.90;;;;;;5073020;28;20476;-69
2022/09/19 09:24:13;;;;;;;5.95;1.90;;;15.10;99.90;;;;;;5080746;28;20085;-63
2022/09/19 09:26:59;;;;;;;4.28;1.65;;;15.10;99.90;;;;;;5059971;28;20620;-65
2022/09/19 09:29:34;;;;;;;8.95;1.85;;;15.10;99.90;;;;;;5074411;28;20076;-66
2022/09/19 09:32:30;;;;;;;7.05;2.65;;;15.10;99.90;;;;;;5086964;28;20071;-65
2022/09/19 09:35:12;;;;;;;166.23;140.80;;;15.10;99.90;;;;;;5062538;28;20037;-63
2022/09/19 09:37:44;;;;;;;19.40;15.98;;;15.20;99.90;;;;;;5080322;28;20094;-69
2022/09/19 09:41:44;;;;;;;8.20;6.18;;;15.20;99.90;;;;;;5071123;28;20040;-68
2022/09/19 09:43:11;;;;;;;5.65;2.10;;;15.20;99.90;;;;;;5096553;28;20062;-68
2022/09/19 09:45:44;;;;;;;4.00;2.00;;;15.10;99.90;;;;;;5076507;28;20048;-68
2022/09/19 09:48:14;;;;;;;3.38;1.15;;;15.10;99.90;;;;;;5052545;28;20048;-68
2022/09/19 09:51:00;;;;;;;3.70;1.50;;;15.10;99.90;;;;;;5072288;28;20041;-68
2022/09/19 09:53:27;;;;;;;5.53;1.50;;;15.10;99.90;;;;;;5074724;28;20056;-68
2022/09/19 09:56:15;;;;;;;5.05;1.33;;;15.10;99.90;;;;;;5077762;28;20396;-68
2022/09/19 09:59:07;;;;;;;3.13;1.20;;;15.10;99.90;;;;;;5083810;28;20093;-69
2022/09/19 10:04:48;;;;;;;4.45;1.05;;;15.30;99.90;;;;;;5082892;28;20064;-68
2022/09/19 10:07:40;;;;;;;4.20;1.33;;;15.30;99.90;;;;;;5071570;28;20060;-68
2022/09/19 10:10:16;;;;;;;3.08;1.35;;;15.40;99.90;;;;;;5087626;28;20051;-69
2022/09/19 10:12:44;;;;;;;2.03;1.10;;;15.40;99.90;;;;;;5064021;28;20496;-68
2022/09/19 10:15:21;;;;;;;1.80;1.02;;;15.60;99.90;;;;;;5082637;28;20431;-68
2022/09/19 10:17:49;;;;;;;5.15;1.08;;;15.60;99.90;;;;;;5063277;28;20105;-69
2022/09/19 10:20:19;;;;;;;3.30;1.05;;;15.70;99.90;;;;;;5080484;28;20055;-68
2022/09/19 10:22:46;;;;;;;2.83;1.13;;;15.80;99.90;;;;;;5063607;28;20056;-68
2022/09/19 10:25:19;;;;;;;4.25;1.02;;;15.90;99.90;;;;;;5096953;28;20041;-68
2022/09/19 10:27:49;;;;;;;6.70;2.08;;;16.00;99.90;;;;;;5062661;28;20121;-68
2022/09/19 10:30:24;;;;;;;71.45;56.97;;;16.00;99.90;;;;;;5078227;28;20051;-69
2022/09/19 10:32:52;;;;;;;9.23;7.03;;;16.10;99.90;;;;;;5081245;28;20040;-68
2022/09/19 10:35:25;;;;;;;4.82;2.58;;;16.30;99.90;;;;;;5091270;28;20045;-68
2022/09/19 10:38:00;;;;;;;4.82;2.00;;;16.40;99.90;;;;;;5080712;28;20106;-68
2022/09/19 10:40:28;;;;;;;4.70;1.20;;;16.40;99.90;;;;;;5087257;28;20035;-68
2022/09/19 10:42:55;;;;;;;3.58;1.67;;;16.40;99.90;;;;;;5080663;28;20036;-68
2022/09/19 10:45:36;;;;;;;4.25;1.25;;;16.50;99.90;;;;;;5076178;28;20041;-68
2022/09/19 10:48:34;;;;;;;4.45;1.70;;;16.60;99.90;;;;;;5064178;28;20068;-68
2022/09/19 10:51:13;;;;;;;6.37;1.10;;;16.60;99.90;;;;;;5069983;28;20047;-68
2022/09/19 10:53:45;;;;;;;3.03;0.93;;;16.70;99.90;;;;;;5067490;28;20040;-68
2022/09/19 10:56:22;;;;;;;4.78;2.03;;;16.70;99.90;;;;;;5095799;28;20036;-68
2022/09/19 10:58:52;;;;;;;4.78;1.52;;;16.60;99.90;;;;;;5077458;28;20040;-69
2022/09/19 11:01:23;;;;;;;4.18;1.25;;;16.60;99.90;;;;;;5065460;28;20064;-68
2022/09/19 11:04:11;;;;;;;3.13;1.40;;;16.60;99.90;;;;;;5073631;28;20121;-68
2022/09/19 11:06:58;;;;;;;2.25;1.10;;;16.70;99.90;;;;;;5079800;28;20487;-68
2022/09/19 11:09:33;;;;;;;6.68;1.10;;;16.70;99.90;;;;;;5078842;28;20548;-68
2022/09/19 11:12:04;;;;;;;5.10;1.38;;;16.70;99.90;;;;;;5057021;28;20173;-68
2022/09/19 11:14:38;;;;;;;3.97;1.40;;;16.70;99.90;;;;;;5096734;28;20089;-68
2022/09/19 11:17:27;;;;;;;4.55;3.15;;;16.70;99.90;;;;;;5079163;28;20041;-67
2022/09/19 11:20:03;;;;;;;3.50;1.80;;;16.80;99.90;;;;;;5075482;28;20132;-68
2022/09/19 11:23:10;;;;;;;5.40;1.80;;;16.90;99.90;;;;;;5080741;28;20044;-68
2022/09/19 11:26:04;;;;;;;4.55;1.65;;;17.00;99.90;;;;;;5081330;28;20065;-68
2022/09/19 11:28:43;;;;;;;1.67;0.95;;;17.10;99.90;;;;;;5048462;28;20097;-68
2022/09/19 11:31:22;;;;;;;4.10;2.10;;;17.10;99.90;;;;;;5082741;28;20040;-68
2022/09/19 11:34:12;;;;;;;2.50;1.25;;;16.90;99.90;;;;;;5077637;28;20051;-69
2022/09/19 11:37:25;;;;;;;5.70;2.38;;;16.80;99.90;;;;;;5078096;28;20032;-65
2022/09/19 11:39:55;;;;;;;6.40;3.58;;;16.80;99.90;;;;;;5077020;28;20048;-64
2022/09/19 11:42:46;;;;;;;2.33;1.40;;;17.00;99.90;;;;;;5084400;28;20464;-68
2022/09/19 11:45:15;;;;;;;2.92;1.35;;;17.00;99.90;;;;;;5095235;28;20561;-68
2022/09/19 11:48:07;;;;;;;3.85;1.38;;;17.10;99.90;;;;;;5059362;28;20047;-68
2022/09/19 11:50:46;;;;;;;4.18;1.50;;;17.10;99.90;;;;;;5079341;28;20040;-68
2022/09/19 11:53:22;;;;;;;3.92;1.10;;;17.10;99.90;;;;;;5079419;28;20044;-69
2022/09/19 11:56:15;;;;;;;2.38;1.42;;;17.10;99.90;;;;;;5073758;28;20052;-68
2022/09/19 11:59:06;;;;;;;3.78;1.27;;;17.20;99.90;;;;;;5077400;28;20040;-69
2022/09/19 12:02:20;;;;;;;2.67;1.42;;;17.30;99.90;;;;;;5079992;28;20119;-68
2022/09/19 12:05:19;;;;;;;3.45;1.60;;;17.30;99.90;;;;;;5066783;28;20051;-68
2022/09/19 12:08:13;;;;;;;2.72;1.40;;;17.30;99.90;;;;;;5085001;28;20058;-66
2022/09/19 12:10:45;;;;;;;6.55;2.22;;;17.40;99.90;;;;;;5080162;28;20048;-66
2022/09/19 12:13:18;;;;;;;3.35;1.65;;;17.40;99.90;;;;;;5097191;28;20040;-67
2022/09/19 12:15:51;;;;;;;3.00;1.58;;;17.40;99.90;;;;;;5081029;28;20514;-68
2022/09/19 12:19:00;;;;;;;2.38;1.25;;;17.40;99.90;;;;;;5065520;28;20042;-68
2022/09/19 12:21:29;;;;;;;;;;;17.40;99.90;;;;;;5044657;28;20036;-68
2022/09/19 12:27:29;;;;;;;4.03;1.45;;;17.50;99.90;;;;;;5074334;28;20498;-68
2022/09/19 12:30:13;;;;;;;5.22;1.25;;;17.60;99.90;;;;;;5076210;28;20464;-67
2022/09/19 12:32:56;;;;;;;4.18;1.58;;;17.80;99.90;;;;;;5087971;28;20197;-67
2022/09/19 12:35:35;;;;;;;3.05;1.30;;;17.80;99.90;;;;;;5082520;28;20067;-67
2022/09/19 12:38:20;;;;;;;2.78;1.45;;;18.00;99.90;;;;;;5072863;28;20114;-67
2022/09/19 12:40:49;;;;;;;3.28;1.52;;;18.20;99.90;;;;;;5078302;28;20036;-68
2022/09/19 12:43:41;;;;;;;3.90;1.20;;;18.20;99.90;;;;;;5097775;28;20044;-68
2022/09/19 12:46:45;;;;;;;3.35;1.42;;;18.40;99.90;;;;;;5082393;28;20037;-68
2022/09/19 12:49:37;;;;;;;3.88;1.70;;;18.50;99.90;;;;;;5074990;28;20053;-67
2022/09/19 12:52:21;;;;;;;5.53;3.83;;;18.60;99.90;;;;;;5076827;28;20040;-62
2022/09/19 12:54:52;;;;;;;18.83;4.38;;;18.70;99.90;;;;;;5099338;28;20998;-62
2022/09/19 12:57:23;;;;;;;3.70;1.80;;;18.70;99.90;;;;;;5103039;28;20101;-70
2022/09/19 12:59:51;;;;;;;3.40;2.25;;;18.80;99.90;;;;;;5083565;28;20097;-66
2022/09/19 13:02:28;;;;;;;2.63;1.77;;;18.70;99.90;;;;;;5083920;28;20078;-66
2022/09/19 13:05:10;;;;;;;5.57;1.75;;;18.70;99.90;;;;;;5081843;28;20102;-66
2022/09/19 13:07:57;;;;;;;4.75;1.80;;;18.60;99.90;;;;;;5082319;28;20097;-66
2022/09/19 13:10:29;;;;;;;3.55;1.50;;;18.60;99.90;;;;;;5081889;28;20365;-65
2022/09/19 13:13:20;;;;;;;5.78;1.70;;;18.60;99.90;;;;;;5089738;28;20118;-65
2022/09/19 13:15:54;;;;;;;94.93;84.63;;;18.80;99.90;;;;;;5083784;28;20052;-62
2022/09/19 13:23:57;;;;;;;4.70;2.90;;;18.90;99.90;;;;;;5078927;28;20117;-54
2022/09/19 13:26:35;;;;;;;3.28;1.90;;;18.80;99.90;;;;;;5074436;28;20483;-54
2022/09/19 13:29:33;;;;;;;2.78;1.52;;;18.90;99.90;;;;;;5076426;28;20045;-53
2022/09/19 13:32:09;;;;;;;3.47;1.70;;;18.90;99.90;;;;;;5086774;28;20043;-51
2022/09/19 13:35:00;;;;;;;5.35;1.80;;;19.00;99.90;;;;;;5079284;28;20064;-55
2022/09/19 13:37:28;;;;;;;3.58;1.85;;;19.10;99.90;;;;;;5075843;28;20098;-54
2022/09/19 13:40:03;;;;;;;3.47;2.00;;;19.30;99.90;;;;;;5075926;28;20144;-67